createdAt,value
2023-03-15T00:00:16.080Z,100.00
2023-03-15T00:02:43.183Z,100.00
2023-03-15T00:05:13.217Z,100.00
2023-03-15T00:07:41.382Z,100.00
2023-03-15T00:10:09.615Z,100.00
2023-03-15T00:12:36.715Z,100.00
2023-03-15T00:15:04.241Z,100.00
2023-03-15T00:17:34.856Z,100.00
2023-03-15T00:20:02.215Z,100.00
2023-03-15T00:22:30.724Z,100.00
2023-03-15T00:24:57.779Z,100.00
2023-03-15T00:27:24.915Z,100.00
2023-03-15T00:29:51.875Z,100.00
2023-03-15T00:32:18.865Z,100.00
2023-03-15T00:34:49.252Z,100.00
2023-03-15T00:37:17.069Z,100.00
2023-03-15T00:39:45.727Z,100.00
2023-03-15T00:42:16.308Z,100.00
2023-03-15T00:44:43.877Z,100.00
2023-03-15T00:47:11.878Z,100.00
2023-03-15T00:49:39.471Z,100.00
2023-03-15T00:52:07.384Z,100.00
2023-03-15T00:54:34.489Z,100.00
2023-03-15T00:57:03.594Z,100.00
2023-03-15T00:59:35.030Z,100.00
2023-03-15T01:02:02.341Z,100.00
2023-03-15T01:04:29.411Z,100.00
2023-03-15T01:06:56.447Z,100.00
2023-03-15T01:09:23.447Z,100.00
2023-03-15T01:11:50.664Z,100.00
2023-03-15T01:14:19.149Z,100.00
2023-03-15T01:16:46.634Z,100.00
2023-03-15T01:19:13.908Z,100.00
2023-03-15T01:21:41.021Z,100.00
2023-03-15T01:24:12.315Z,100.00
2023-03-15T01:26:39.294Z,100.00
2023-03-15T01:29:06.321Z,100.00
2023-03-15T01:31:34.707Z,100.00
2023-03-15T01:34:01.770Z,100.00
2023-03-15T01:36:28.988Z,100.00
2023-03-15T01:38:55.984Z,100.00
2023-03-15T01:41:24.881Z,100.00
2023-03-15T01:43:52.128Z,100.00
2023-03-15T01:46:23.775Z,100.00
2023-03-15T01:48:57.556Z,100.00
2023-03-15T01:51:28.550Z,100.00
2023-03-15T01:54:00.677Z,100.00
2023-03-15T01:56:28.877Z,100.00
2023-03-15T01:58:57.317Z,100.00
2023-03-15T02:01:25.065Z,100.00
2023-03-15T02:03:56.235Z,100.00
2023-03-15T02:06:24.258Z,100.00
2023-03-15T02:08:57.057Z,100.00
2023-03-15T02:11:26.058Z,100.00
2023-03-15T02:13:54.350Z,100.00
2023-03-15T02:16:23.732Z,100.00
2023-03-15T02:18:50.754Z,100.00
2023-03-15T02:21:32.467Z,100.00
2023-03-15T02:24:11.725Z,100.00
2023-03-15T02:26:44.553Z,100.00
2023-03-15T02:29:13.474Z,100.00
2023-03-15T02:31:40.721Z,100.00
2023-03-15T02:34:08.560Z,100.00
2023-03-15T02:36:36.843Z,100.00
2023-03-15T02:39:15.052Z,100.00
2023-03-15T02:41:45.078Z,100.00
2023-03-15T02:44:16.628Z,100.00
2023-03-15T02:46:46.270Z,100.00
2023-03-15T02:49:13.974Z,100.00
2023-03-15T02:51:41.041Z,100.00
2023-03-15T02:54:08.091Z,100.00
2023-03-15T02:56:35.259Z,100.00
2023-03-15T02:59:02.303Z,100.00
2023-03-15T03:01:31.776Z,100.00
2023-03-15T03:03:58.816Z,100.00
2023-03-15T03:06:25.854Z,100.00
2023-03-15T03:08:52.817Z,100.00
2023-03-15T03:11:19.817Z,100.00
2023-03-15T03:13:46.924Z,100.00
2023-03-15T03:16:13.956Z,100.00
2023-03-15T03:18:42.379Z,100.00
2023-03-15T03:21:09.821Z,100.00
2023-03-15T03:23:37.182Z,100.00
2023-03-15T03:26:11.754Z,100.00
2023-03-15T03:28:38.912Z,100.00
2023-03-15T03:31:06.110Z,100.00
2023-03-15T03:33:33.197Z,100.00
2023-03-15T03:36:04.451Z,100.00
2023-03-15T03:38:31.495Z,100.00
2023-03-15T03:40:58.498Z,100.00
2023-03-15T03:43:25.541Z,100.00
2023-03-15T03:45:52.566Z,100.00
2023-03-15T03:48:19.530Z,100.00
2023-03-15T03:50:46.540Z,100.00
2023-03-15T03:53:14.916Z,100.00
2023-03-15T03:55:42.833Z,100.00
2023-03-15T03:58:10.112Z,100.00
2023-03-15T04:00:37.303Z,100.00
2023-03-15T04:03:04.696Z,100.00
2023-03-15T04:05:32.064Z,100.00
2023-03-15T04:07:59.178Z,100.00
2023-03-15T04:10:27.570Z,100.00
2023-03-15T04:12:55.833Z,100.00
2023-03-15T04:15:23.907Z,100.00
2023-03-15T04:17:56.071Z,100.00
2023-03-15T04:20:23.475Z,100.00
2023-03-15T04:22:50.481Z,100.00
2023-03-15T04:25:18.179Z,100.00
2023-03-15T04:27:58.709Z,100.00
2023-03-15T04:30:27.369Z,100.00
2023-03-15T04:33:00.492Z,100.00
2023-03-15T04:35:28.145Z,100.00
2023-03-15T04:37:55.608Z,100.00
2023-03-15T04:40:24.190Z,100.00
2023-03-15T04:42:55.590Z,100.00
2023-03-15T04:45:22.804Z,100.00
2023-03-15T04:47:50.002Z,100.00
2023-03-15T04:50:17.453Z,100.00
2023-03-15T04:52:44.427Z,100.00
2023-03-15T04:55:12.180Z,100.00
2023-03-15T04:57:39.613Z,100.00
2023-03-15T05:00:10.252Z,100.00
2023-03-15T05:02:40.146Z,100.00
2023-03-15T05:05:07.796Z,100.00
2023-03-15T05:07:36.003Z,100.00
2023-03-15T05:10:03.046Z,100.00
2023-03-15T05:12:30.324Z,100.00
2023-03-15T05:14:57.637Z,100.00
2023-03-15T05:17:26.010Z,100.00
2023-03-15T05:19:52.962Z,100.00
2023-03-15T05:22:20.072Z,100.00
2023-03-15T05:24:47.024Z,100.00
2023-03-15T05:27:14.160Z,100.00
2023-03-15T05:29:41.106Z,100.00
2023-03-15T05:32:08.211Z,100.00
2023-03-15T05:34:36.566Z,100.00
2023-03-15T05:37:03.564Z,100.00
2023-03-15T05:39:34.615Z,100.00
2023-03-15T05:42:02.275Z,100.00
2023-03-15T05:44:29.411Z,100.00
2023-03-15T05:46:56.485Z,100.00
2023-03-15T05:49:23.689Z,100.00
2023-03-15T05:51:52.133Z,100.00
2023-03-15T05:54:19.135Z,100.00
2023-03-15T05:56:46.188Z,100.00
2023-03-15T05:59:13.161Z,100.00
2023-03-15T06:01:40.187Z,100.00
2023-03-15T06:04:07.506Z,100.00
2023-03-15T06:06:34.589Z,100.00
2023-03-15T06:09:03.153Z,100.00
2023-03-15T06:11:30.085Z,100.00
2023-03-15T06:13:57.249Z,100.00
2023-03-15T06:16:27.494Z,100.00
2023-03-15T06:18:54.637Z,100.00
2023-03-15T06:21:21.758Z,100.00
2023-03-15T06:23:48.836Z,100.00
2023-03-15T06:26:19.058Z,100.00
2023-03-15T06:28:46.441Z,100.00
2023-03-15T06:31:14.678Z,100.00
2023-03-15T06:33:41.905Z,100.00
2023-03-15T06:36:09.819Z,100.00
2023-03-15T06:38:36.828Z,100.00
2023-03-15T06:41:05.264Z,100.00
2023-03-15T06:43:33.657Z,100.00
2023-03-15T06:46:00.838Z,100.00
2023-03-15T06:48:28.368Z,100.00
2023-03-15T06:50:55.464Z,100.00
2023-03-15T06:53:22.741Z,100.00
2023-03-15T06:55:50.878Z,100.00
2023-03-15T06:58:18.076Z,100.00
2023-03-15T07:00:48.404Z,100.00
2023-03-15T07:03:15.408Z,100.00
2023-03-15T07:05:42.501Z,100.00
2023-03-15T07:08:09.548Z,100.00
2023-03-15T07:10:36.618Z,100.00
2023-03-15T07:13:05.289Z,100.00
2023-03-15T07:15:32.266Z,100.00
2023-03-15T07:18:01.061Z,100.00
2023-03-15T07:20:28.042Z,100.00
2023-03-15T07:22:54.993Z,100.00
2023-03-15T07:25:24.159Z,100.00
2023-03-15T07:27:51.674Z,97.04
2023-03-15T07:30:19.441Z,97.58
2023-03-15T07:32:46.897Z,96.84
2023-03-15T07:35:16.909Z,97.33
2023-03-15T07:37:44.897Z,99.07
2023-03-15T07:40:13.108Z,99.19
2023-03-15T07:42:40.628Z,96.73
2023-03-15T07:45:08.774Z,96.17
2023-03-15T07:47:36.365Z,91.97
2023-03-15T07:50:04.004Z,93.68
2023-03-15T07:52:32.572Z,90.40
2023-03-15T07:54:59.628Z,91.05
2023-03-15T07:57:28.818Z,91.82
2023-03-15T07:59:56.235Z,91.91
2023-03-15T08:02:27.338Z,90.60
2023-03-15T08:04:55.434Z,90.98
2023-03-15T08:07:22.480Z,89.85
2023-03-15T08:09:50.973Z,89.00
2023-03-15T08:12:18.011Z,86.19
2023-03-15T08:14:44.955Z,84.73
2023-03-15T08:17:16.217Z,85.21
2023-03-15T08:19:43.265Z,82.53
2023-03-15T08:22:11.029Z,84.70
2023-03-15T08:24:37.984Z,85.70
2023-03-15T08:27:06.946Z,84.39
2023-03-15T08:29:33.955Z,79.18
2023-03-15T08:32:01.007Z,82.48
2023-03-15T08:34:28.004Z,81.20
2023-03-15T08:36:55.071Z,80.34
2023-03-15T08:39:24.274Z,81.56
2023-03-15T08:41:51.579Z,88.90
2023-03-15T08:44:19.934Z,87.00
2023-03-15T08:46:46.978Z,87.50
2023-03-15T08:49:13.887Z,88.93
2023-03-15T08:51:41.145Z,84.87
2023-03-15T08:54:08.150Z,87.84
2023-03-15T08:56:35.376Z,86.87
2023-03-15T08:59:02.407Z,89.67
2023-03-15T09:01:30.753Z,88.09
2023-03-15T09:03:57.923Z,87.61
2023-03-15T09:06:25.203Z,82.86
2023-03-15T09:08:53.920Z,82.03
2023-03-15T09:11:20.993Z,81.56
2023-03-15T09:13:48.439Z,87.29
2023-03-15T09:16:15.783Z,84.04
2023-03-15T09:18:44.842Z,81.92
2023-03-15T09:21:12.211Z,77.46
2023-03-15T09:23:42.206Z,70.79
2023-03-15T09:26:09.260Z,75.65
2023-03-15T09:28:36.206Z,80.75
2023-03-15T09:31:06.475Z,80.93
2023-03-15T09:33:33.635Z,76.37
2023-03-15T09:36:02.357Z,74.08
2023-03-15T09:38:29.617Z,76.36
2023-03-15T09:40:58.420Z,70.92
2023-03-15T09:43:58.885Z,72.94
2023-03-15T09:46:29.041Z,71.87
2023-03-15T09:49:01.307Z,69.16
2023-03-15T09:51:38.397Z,65.59
2023-03-15T09:54:11.656Z,74.96
2023-03-15T09:56:45.750Z,65.19
2023-03-15T09:59:13.530Z,69.89
2023-03-15T10:01:43.467Z,68.97
2023-03-15T10:04:18.925Z,70.75
2023-03-15T10:06:54.207Z,71.35
2023-03-15T10:09:23.183Z,72.95
2023-03-15T10:11:59.309Z,75.17
2023-03-15T10:14:36.648Z,67.42
2023-03-15T10:17:11.223Z,66.25
2023-03-15T10:19:47.530Z,65.48
2023-03-15T10:22:24.864Z,64.40
2023-03-15T10:24:56.499Z,62.88
2023-03-15T10:27:30.845Z,60.71
2023-03-15T10:29:59.897Z,60.67
2023-03-15T10:32:31.353Z,62.46
2023-03-15T10:34:58.921Z,61.70
2023-03-15T10:37:27.464Z,71.33
2023-03-15T10:39:57.459Z,68.76
2023-03-15T10:42:29.429Z,62.65
2023-03-15T10:44:56.823Z,60.64
2023-03-15T10:47:26.121Z,61.75
2023-03-15T10:49:57.743Z,59.79
2023-03-15T10:52:35.585Z,62.54
2023-03-15T10:55:06.834Z,57.19
2023-03-15T10:57:40.588Z,53.78
2023-03-15T11:00:26.060Z,56.66
2023-03-15T11:03:02.283Z,51.41
2023-03-15T11:05:31.216Z,57.90
2023-03-15T11:08:01.218Z,56.17
2023-03-15T11:10:33.518Z,57.88
2023-03-15T11:13:14.471Z,62.72
2023-03-15T11:15:49.423Z,70.58
2023-03-15T11:18:25.695Z,60.74
2023-03-15T11:20:54.745Z,61.26
2023-03-15T11:23:26.402Z,56.66
2023-03-15T11:25:54.469Z,63.72
2023-03-15T11:28:24.966Z,58.21
2023-03-15T11:30:52.267Z,66.58
2023-03-15T11:33:33.742Z,59.08
2023-03-15T11:36:03.170Z,55.56
2023-03-15T11:38:35.830Z,58.55
2023-03-15T11:41:11.686Z,61.08
2023-03-15T11:43:49.572Z,58.67
2023-03-15T11:46:24.847Z,59.93
2023-03-15T11:48:57.373Z,55.93
2023-03-15T11:51:24.584Z,57.82
2023-03-15T11:54:05.666Z,49.24
2023-03-15T11:56:54.296Z,53.39
2023-03-15T11:59:25.915Z,50.95
2023-03-15T12:01:57.932Z,56.48
2023-03-15T12:04:44.179Z,56.27
2023-03-15T12:07:30.125Z,53.25
2023-03-15T12:10:20.380Z,52.53
2023-03-15T12:12:48.493Z,56.45
2023-03-15T12:15:44.444Z,57.63
2023-03-15T12:18:17.035Z,56.60
2023-03-15T12:20:51.924Z,52.61
2023-03-15T12:23:33.089Z,54.27
2023-03-15T12:26:07.187Z,52.02
2023-03-15T12:28:37.153Z,55.41
2023-03-15T12:31:06.882Z,54.99
2023-03-15T12:33:45.678Z,58.84
2023-03-15T12:36:21.508Z,57.41
2023-03-15T12:39:00.984Z,56.57
2023-03-15T12:41:38.332Z,56.49
2023-03-15T12:44:39.345Z,53.71
2023-03-15T12:49:48.177Z,50.44
2023-03-15T12:52:43.167Z,56.09
2023-03-15T12:55:16.016Z,55.10
2023-03-15T12:57:49.431Z,53.65
2023-03-15T13:00:20.822Z,52.04
2023-03-15T13:02:50.252Z,49.99
2023-03-15T13:05:22.559Z,54.71
2023-03-15T13:07:54.151Z,53.60
2023-03-15T13:10:32.832Z,50.58
2023-03-15T13:13:11.371Z,51.75
2023-03-15T13:15:44.751Z,55.40
2023-03-15T13:18:18.229Z,52.11
2023-03-15T13:20:52.320Z,54.67
2023-03-15T13:23:21.681Z,53.68
2023-03-15T13:25:58.376Z,52.74
2023-03-15T13:28:37.378Z,52.71
2023-03-15T13:31:13.400Z,55.94
2023-03-15T13:33:40.574Z,52.51
2023-03-15T13:36:15.233Z,55.39
2023-03-15T13:38:44.243Z,53.56
2023-03-15T13:41:20.623Z,51.52
2023-03-15T13:43:51.353Z,54.10
2023-03-15T13:46:22.909Z,52.56
2023-03-15T13:48:53.579Z,52.98
2023-03-15T13:51:24.898Z,53.18
2023-03-15T13:53:54.816Z,50.30
2023-03-15T13:56:32.690Z,50.61
2023-03-15T13:59:06.554Z,53.48
2023-03-15T14:01:39.432Z,52.26
2023-03-15T14:04:09.931Z,52.80
2023-03-15T14:06:36.951Z,50.78
2023-03-15T14:09:11.712Z,50.00
2023-03-15T14:11:40.805Z,52.52
2023-03-15T14:14:24.021Z,55.69
2023-03-15T14:17:04.335Z,54.93
2023-03-15T14:19:34.077Z,53.19
2023-03-15T14:22:05.266Z,51.26
2023-03-15T14:24:36.960Z,52.23
2023-03-15T14:27:08.070Z,50.36
2023-03-15T14:29:38.966Z,51.74
2023-03-15T14:32:08.767Z,51.08
2023-03-15T14:34:43.660Z,50.17
2023-03-15T14:37:29.861Z,52.71
2023-03-15T14:40:20.249Z,53.61
2023-03-15T14:42:50.346Z,50.62
2023-03-15T14:45:20.260Z,50.54
2023-03-15T14:47:56.852Z,50.55
2023-03-15T14:50:29.491Z,51.93
2023-03-15T14:52:58.841Z,50.58
2023-03-15T14:55:29.914Z,52.60
2023-03-15T14:57:56.988Z,51.07
2023-03-15T15:00:25.658Z,51.70
2023-03-15T15:02:55.830Z,51.37
2023-03-15T15:05:25.912Z,52.22
2023-03-15T15:08:04.997Z,52.94
2023-03-15T15:10:34.905Z,51.95
2023-03-15T15:13:06.512Z,53.36
2023-03-15T15:15:53.601Z,51.93
2023-03-15T15:18:23.399Z,54.90
2023-03-15T15:20:54.387Z,52.27
2023-03-15T15:23:23.675Z,52.96
2023-03-15T15:25:53.418Z,56.26
2023-03-15T15:28:33.370Z,53.46
2023-03-15T15:31:04.404Z,55.01
2023-03-15T15:33:31.830Z,55.68
2023-03-15T15:35:58.936Z,54.25
2023-03-15T15:38:33.360Z,54.76
2023-03-15T15:41:00.554Z,54.89
2023-03-15T15:43:27.661Z,56.18
2023-03-15T15:45:54.740Z,58.97
2023-03-15T15:48:23.086Z,56.21
2023-03-15T15:50:50.078Z,57.70
2023-03-15T15:53:18.468Z,55.04
2023-03-15T15:55:46.112Z,55.37
2023-03-15T15:58:14.886Z,54.43
2023-03-15T16:00:41.925Z,54.83
2023-03-15T16:03:15.234Z,55.50
2023-03-15T16:05:44.169Z,54.98
2023-03-15T16:08:17.166Z,53.96
2023-03-15T16:10:44.958Z,54.87
2023-03-15T16:13:12.868Z,54.95
2023-03-15T16:15:39.932Z,53.09
2023-03-15T16:18:09.938Z,55.21
2023-03-15T16:20:37.182Z,57.56
2023-03-15T16:23:05.608Z,55.66
2023-03-15T16:25:36.200Z,54.25
2023-03-15T16:28:05.311Z,56.84
2023-03-15T16:30:33.602Z,55.37
2023-03-15T16:33:01.611Z,56.35
2023-03-15T16:35:32.104Z,55.72
2023-03-15T16:38:00.005Z,58.75
2023-03-15T16:40:30.093Z,56.67
2023-03-15T16:42:57.725Z,56.10
2023-03-15T16:47:57.164Z,57.89
2023-03-15T16:50:24.644Z,59.52
2023-03-15T16:52:55.074Z,58.04
2023-03-15T16:55:24.569Z,58.48
2023-03-15T16:57:53.067Z,58.67
2023-03-15T17:00:20.932Z,60.61
2023-03-15T17:02:50.277Z,60.63
2023-03-15T17:05:20.079Z,61.78
2023-03-15T17:07:49.156Z,63.82
2023-03-15T17:10:21.779Z,62.40
2023-03-15T17:12:49.501Z,59.47
2023-03-15T17:15:20.598Z,61.51
2023-03-15T17:17:48.236Z,59.98
2023-03-15T17:20:21.561Z,63.04
2023-03-15T17:22:49.648Z,61.27
2023-03-15T17:25:17.974Z,64.30
2023-03-15T17:27:47.851Z,62.61
2023-03-15T17:30:19.441Z,62.21
2023-03-15T17:32:46.913Z,62.15
2023-03-15T17:35:16.068Z,63.71
2023-03-15T17:37:46.817Z,63.41
2023-03-15T17:40:21.495Z,68.66
2023-03-15T17:42:49.457Z,64.07
2023-03-15T17:45:23.314Z,64.95
2023-03-15T17:47:51.901Z,64.97
2023-03-15T17:50:20.102Z,66.98
2023-03-15T17:52:50.494Z,69.19
2023-03-15T17:55:21.699Z,67.25
2023-03-15T17:57:55.024Z,67.49
2023-03-15T18:00:25.572Z,69.74
2023-03-15T18:02:56.780Z,69.62
2023-03-15T18:05:29.940Z,71.95
2023-03-15T18:07:59.585Z,67.76
2023-03-15T18:10:34.508Z,70.15
2023-03-15T18:13:02.490Z,72.86
2023-03-15T18:15:31.797Z,69.64
2023-03-15T18:17:59.489Z,71.03
2023-03-15T18:20:28.040Z,71.52
2023-03-15T18:22:56.112Z,72.49
2023-03-15T18:25:26.259Z,73.71
2023-03-15T18:27:53.972Z,71.69
2023-03-15T18:30:23.498Z,71.54
2023-03-15T18:32:57.414Z,73.28
2023-03-15T18:35:25.261Z,74.34
2023-03-15T18:37:54.200Z,75.01
2023-03-15T18:40:21.832Z,72.82
2023-03-15T18:42:48.928Z,75.06
2023-03-15T18:45:19.367Z,74.83
2023-03-15T18:47:46.819Z,73.66
2023-03-15T18:50:16.610Z,72.31
2023-03-15T18:52:44.400Z,73.33
2023-03-15T18:55:13.150Z,75.73
2023-03-15T18:57:45.055Z,76.26
2023-03-15T19:00:14.380Z,76.59
2023-03-15T19:02:42.874Z,77.66
2023-03-15T19:05:12.925Z,75.95
2023-03-15T19:07:41.923Z,76.78
2023-03-15T19:10:13.635Z,77.83
2023-03-15T19:12:41.052Z,77.35
2023-03-15T19:15:11.979Z,79.58
2023-03-15T19:17:39.640Z,78.59
2023-03-15T19:20:09.205Z,80.90
2023-03-15T19:22:36.679Z,80.24
2023-03-15T19:25:06.379Z,78.63
2023-03-15T19:27:33.434Z,80.45
2023-03-15T19:30:00.542Z,80.51
2023-03-15T19:32:30.092Z,81.03
2023-03-15T19:34:57.311Z,79.82
2023-03-15T19:37:24.516Z,79.91
2023-03-15T19:39:51.733Z,79.07
2023-03-15T19:42:20.772Z,79.58
2023-03-15T19:44:51.858Z,81.26
2023-03-15T19:47:18.941Z,80.54
2023-03-15T19:49:46.180Z,80.25
2023-03-15T19:52:15.913Z,79.66
2023-03-15T19:54:43.054Z,79.51
2023-03-15T19:57:10.052Z,80.40
2023-03-15T19:59:41.093Z,80.22
2023-03-15T20:02:10.662Z,79.67
2023-03-15T20:04:37.963Z,78.15
2023-03-15T20:07:06.096Z,81.74
2023-03-15T20:09:38.954Z,79.05
2023-03-15T20:12:07.217Z,79.82
2023-03-15T20:14:34.828Z,80.28
2023-03-15T20:17:03.879Z,79.36
2023-03-15T20:19:32.564Z,79.71
2023-03-15T20:21:59.678Z,80.70
2023-03-15T20:24:26.736Z,77.51
2023-03-15T20:26:54.114Z,78.16
2023-03-15T20:29:22.578Z,78.48
2023-03-15T20:31:49.931Z,79.59
2023-03-15T20:34:18.776Z,79.21
2023-03-15T20:36:45.889Z,79.25
2023-03-15T20:39:13.045Z,78.74
2023-03-15T20:41:40.141Z,79.49
2023-03-15T20:44:07.819Z,79.48
2023-03-15T20:46:35.046Z,80.05
2023-03-15T20:49:02.135Z,79.98
2023-03-15T20:51:30.654Z,79.97
2023-03-15T20:53:57.810Z,80.84
2023-03-15T20:56:28.240Z,82.39
2023-03-15T20:58:55.804Z,81.85
2023-03-15T21:01:23.472Z,81.65
2023-03-15T21:03:53.471Z,83.40
2023-03-15T21:06:21.445Z,83.97
2023-03-15T21:08:50.643Z,84.77
2023-03-15T21:11:21.282Z,82.89
2023-03-15T21:13:48.917Z,82.66
2023-03-15T21:16:17.067Z,82.91
2023-03-15T21:18:47.916Z,84.79
2023-03-15T21:21:15.859Z,85.62
2023-03-15T21:23:43.608Z,84.33
2023-03-15T21:26:14.350Z,86.59
2023-03-15T21:28:42.517Z,86.18
2023-03-15T21:31:10.450Z,86.28
2023-03-15T21:33:38.345Z,86.39
2023-03-15T21:36:06.752Z,87.26
2023-03-15T21:38:35.290Z,87.05
2023-03-15T21:41:08.235Z,86.95
2023-03-15T21:43:38.090Z,86.89
2023-03-15T21:46:07.838Z,87.06
2023-03-15T21:48:37.427Z,85.98
2023-03-15T21:51:05.710Z,86.92
2023-03-15T21:53:35.741Z,85.36
2023-03-15T21:56:04.078Z,86.48
2023-03-15T21:58:31.843Z,87.03
2023-03-15T22:01:02.475Z,89.67
2023-03-15T22:03:29.729Z,91.07
2023-03-15T22:05:57.268Z,91.26
2023-03-15T22:08:24.765Z,89.65
2023-03-15T22:10:53.248Z,92.10
2023-03-15T22:13:20.450Z,90.98
2023-03-15T22:15:47.510Z,92.68
2023-03-15T22:18:16.098Z,92.52
2023-03-15T22:20:43.302Z,94.60
2023-03-15T22:23:11.284Z,95.16
2023-03-15T22:25:40.227Z,95.04
2023-03-15T22:28:07.578Z,94.28
2023-03-15T22:30:35.200Z,95.96
2023-03-15T22:33:02.915Z,96.27
2023-03-15T22:35:31.753Z,95.71
2023-03-15T22:37:58.975Z,96.07
2023-03-15T22:40:28.343Z,97.80
2023-03-15T22:42:57.303Z,98.01
2023-03-15T22:45:26.161Z,99.33
2023-03-15T22:47:53.387Z,100.00
2023-03-15T22:50:20.945Z,100.00
2023-03-15T22:52:51.891Z,100.00
2023-03-15T22:55:20.798Z,100.00
2023-03-15T22:57:48.466Z,100.00
2023-03-15T23:00:20.981Z,100.00
2023-03-15T23:02:48.293Z,100.00
2023-03-15T23:05:15.762Z,100.00
2023-03-15T23:07:42.869Z,100.00
2023-03-15T23:10:12.259Z,100.00
2023-03-15T23:12:39.526Z,100.00
2023-03-15T23:15:07.820Z,100.00
2023-03-15T23:17:35.110Z,100.00
2023-03-15T23:20:02.218Z,100.00
2023-03-15T23:22:29.888Z,100.00
2023-03-15T23:24:58.371Z,100.00
2023-03-15T23:27:26.913Z,100.00
2023-03-15T23:29:55.248Z,100.00
2023-03-15T23:32:23.260Z,100.00
2023-03-15T23:34:51.188Z,100.00
2023-03-15T23:37:18.290Z,100.00
2023-03-15T23:39:45.668Z,100.00
2023-03-15T23:42:13.985Z,100.00
2023-03-15T23:44:43.437Z,100.00
2023-03-15T23:47:10.711Z,100.00
2023-03-15T23:49:37.811Z,100.00
2023-03-15T23:52:06.022Z,100.00
2023-03-15T23:54:40.331Z,100.00
2023-03-15T23:57:08.504Z,100.00
2023-03-15T23:59:36.599Z,100.00
